<?xml version="1.0" encoding="UTF-8" standalone="no" ?>
<gpx xmlns="http://www.topografix.com/GPX/1/1" xmlns:xsi="http://www.w3.org/2001/XMLSchema-instance" xsi:schemaLocation="http://www.topografix.com/GPX/1/1 http://www.topografix.com/GPX/1/1/gpx.xsd" version="1.1" creator="VisuGPX - https://www.visugpx.com">
  <metadata>
    <name>Caudan 56854</name>
    <desc><![CDATA[Marche facile, mais attention dans les bois aux feuilles qui recouvrent les racines.]]></desc>
  </metadata>
  <trk>
    <name><![CDATA[Caudan: 16 MARS 2016]]></name>
    <trkseg>
      <trkpt lat="47.81129" lon="-3.34069">
        <ele>53.49</ele>
        <time>2016-03-16T13:17:49Z</time>
      </trkpt>
      <trkpt lat="47.81129" lon="-3.34069">
        <ele>53.49</ele>
        <time>2016-03-16T13:17:50Z</time>
      </trkpt>
      <trkpt lat="47.81128" lon="-3.34073">
        <ele>53.01</ele>
        <time>2016-03-16T13:18:20Z</time>
      </trkpt>
      <trkpt lat="47.81128" lon="-3.34077">
        <ele>52.53</ele>
        <time>2016-03-16T13:18:51Z</time>
      </trkpt>
      <trkpt lat="47.81128" lon="-3.34079">
        <ele>52.53</ele>
        <time>2016-03-16T13:19:03Z</time>
      </trkpt>
      <trkpt lat="47.81129" lon="-3.34087">
        <ele>53.49</ele>
        <time>2016-03-16T13:19:25Z</time>
      </trkpt>
      <trkpt lat="47.81128" lon="-3.34087">
        <ele>53.01</ele>
        <time>2016-03-16T13:19:38Z</time>
      </trkpt>
      <trkpt lat="47.81128" lon="-3.34086">
        <ele>53.49</ele>
        <time>2016-03-16T13:19:54Z</time>
      </trkpt>
      <trkpt lat="47.81128" lon="-3.34084">
        <ele>54.45</ele>
        <time>2016-03-16T13:20:00Z</time>
      </trkpt>
      <trkpt lat="47.81127" lon="-3.34089">
        <ele>53.49</ele>
        <time>2016-03-16T13:20:34Z</time>
      </trkpt>
      <trkpt lat="47.81121" lon="-3.34086">
        <ele>54.45</ele>
        <time>2016-03-16T13:21:06Z</time>
      </trkpt>
      <trkpt lat="47.81115" lon="-3.34086">
        <ele>53.97</ele>
        <time>2016-03-16T13:21:31Z</time>
      </trkpt>
      <trkpt lat="47.8112" lon="-3.34085">
        <ele>53.97</ele>
        <time>2016-03-16T13:22:02Z</time>
      </trkpt>
      <trkpt lat="47.81124" lon="-3.34079">
        <ele>53.97</ele>
        <time>2016-03-16T13:22:39Z</time>
      </trkpt>
      <trkpt lat="47.81125" lon="-3.34078">
        <ele>53.97</ele>
        <time>2016-03-16T13:23:13Z</time>
      </trkpt>
      <trkpt lat="47.81123" lon="-3.34082">
        <ele>54.45</ele>
        <time>2016-03-16T13:23:37Z</time>
      </trkpt>
      <trkpt lat="47.81121" lon="-3.3408">
        <ele>53.97</ele>
        <time>2016-03-16T13:23:54Z</time>
      </trkpt>
      <trkpt lat="47.81115" lon="-3.34078">
        <ele>56.37</ele>
        <time>2016-03-16T13:24:09Z</time>
      </trkpt>
      <trkpt lat="47.81113" lon="-3.34085">
        <ele>56.86</ele>
        <time>2016-03-16T13:24:19Z</time>
      </trkpt>
      <trkpt lat="47.81106" lon="-3.34088">
        <ele>58.3</ele>
        <time>2016-03-16T13:24:35Z</time>
      </trkpt>
      <trkpt lat="47.81092" lon="-3.34077">
        <ele>58.78</ele>
        <time>2016-03-16T13:24:55Z</time>
      </trkpt>
      <trkpt lat="47.8109" lon="-3.34074">
        <ele>58.78</ele>
        <time>2016-03-16T13:24:58Z</time>
      </trkpt>
      <trkpt lat="47.81081" lon="-3.34068">
        <ele>57.34</ele>
        <time>2016-03-16T13:25:08Z</time>
      </trkpt>
      <trkpt lat="47.81077" lon="-3.34065">
        <ele>59.26</ele>
        <time>2016-03-16T13:25:14Z</time>
      </trkpt>
      <trkpt lat="47.81069" lon="-3.34043">
        <ele>56.86</ele>
        <time>2016-03-16T13:25:32Z</time>
      </trkpt>
      <trkpt lat="47.81065" lon="-3.34027">
        <ele>56.86</ele>
        <time>2016-03-16T13:25:48Z</time>
      </trkpt>
      <trkpt lat="47.81063" lon="-3.34003">
        <ele>57.34</ele>
        <time>2016-03-16T13:26:05Z</time>
      </trkpt>
      <trkpt lat="47.81061" lon="-3.33998">
        <ele>57.82</ele>
        <time>2016-03-16T13:26:08Z</time>
      </trkpt>
      <trkpt lat="47.81057" lon="-3.33992">
        <ele>55.89</ele>
        <time>2016-03-16T13:26:13Z</time>
      </trkpt>
      <trkpt lat="47.8104" lon="-3.34005">
        <ele>57.34</ele>
        <time>2016-03-16T13:26:46Z</time>
      </trkpt>
      <trkpt lat="47.81054" lon="-3.33995">
        <ele>56.86</ele>
        <time>2016-03-16T13:27:31Z</time>
      </trkpt>
      <trkpt lat="47.81052" lon="-3.33991">
        <ele>55.89</ele>
        <time>2016-03-16T13:27:33Z</time>
      </trkpt>
      <trkpt lat="47.81057" lon="-3.33973">
        <ele>54.93</ele>
        <time>2016-03-16T13:27:49Z</time>
      </trkpt>
      <trkpt lat="47.81056" lon="-3.33972">
        <ele>54.93</ele>
        <time>2016-03-16T13:28:04Z</time>
      </trkpt>
      <trkpt lat="47.81056" lon="-3.33971">
        <ele>54.93</ele>
        <time>2016-03-16T13:28:05Z</time>
      </trkpt>
      <trkpt lat="47.81057" lon="-3.33957">
        <ele>53.49</ele>
        <time>2016-03-16T13:28:20Z</time>
      </trkpt>
      <trkpt lat="47.81056" lon="-3.33956">
        <ele>53.97</ele>
        <time>2016-03-16T13:28:46Z</time>
      </trkpt>
      <trkpt lat="47.81055" lon="-3.33958">
        <ele>54.45</ele>
        <time>2016-03-16T13:29:05Z</time>
      </trkpt>
      <trkpt lat="47.81056" lon="-3.33958">
        <ele>54.93</ele>
        <time>2016-03-16T13:29:30Z</time>
      </trkpt>
      <trkpt lat="47.81057" lon="-3.33961">
        <ele>54.93</ele>
        <time>2016-03-16T13:30:07Z</time>
      </trkpt>
      <trkpt lat="47.81058" lon="-3.33957">
        <ele>54.93</ele>
        <time>2016-03-16T13:30:43Z</time>
      </trkpt>
      <trkpt lat="47.81056" lon="-3.33956">
        <ele>54.93</ele>
        <time>2016-03-16T13:31:15Z</time>
      </trkpt>
      <trkpt lat="47.81054" lon="-3.33957">
        <ele>54.93</ele>
        <time>2016-03-16T13:31:45Z</time>
      </trkpt>
      <trkpt lat="47.81052" lon="-3.33957">
        <ele>55.41</ele>
        <time>2016-03-16T13:32:15Z</time>
      </trkpt>
      <trkpt lat="47.81051" lon="-3.33952">
        <ele>55.89</ele>
        <time>2016-03-16T13:32:54Z</time>
      </trkpt>
      <trkpt lat="47.81051" lon="-3.33955">
        <ele>55.41</ele>
        <time>2016-03-16T13:33:28Z</time>
      </trkpt>
      <trkpt lat="47.81055" lon="-3.33958">
        <ele>54.93</ele>
        <time>2016-03-16T13:33:50Z</time>
      </trkpt>
      <trkpt lat="47.81053" lon="-3.33966">
        <ele>54.93</ele>
        <time>2016-03-16T13:34:22Z</time>
      </trkpt>
      <trkpt lat="47.81057" lon="-3.3396">
        <ele>55.41</ele>
        <time>2016-03-16T13:34:39Z</time>
      </trkpt>
      <trkpt lat="47.81057" lon="-3.33959">
        <ele>55.41</ele>
        <time>2016-03-16T13:35:04Z</time>
      </trkpt>
      <trkpt lat="47.81057" lon="-3.33958">
        <ele>55.41</ele>
        <time>2016-03-16T13:35:32Z</time>
      </trkpt>
      <trkpt lat="47.81054" lon="-3.33956">
        <ele>55.89</ele>
        <time>2016-03-16T13:35:53Z</time>
      </trkpt>
      <trkpt lat="47.81058" lon="-3.33956">
        <ele>55.41</ele>
        <time>2016-03-16T13:36:14Z</time>
      </trkpt>
      <trkpt lat="47.81057" lon="-3.33959">
        <ele>55.41</ele>
        <time>2016-03-16T13:36:34Z</time>
      </trkpt>
      <trkpt lat="47.81055" lon="-3.33961">
        <ele>54.45</ele>
        <time>2016-03-16T13:36:41Z</time>
      </trkpt>
      <trkpt lat="47.81057" lon="-3.33957">
        <ele>55.89</ele>
        <time>2016-03-16T13:36:58Z</time>
      </trkpt>
      <trkpt lat="47.81057" lon="-3.33957">
        <ele>55.41</ele>
        <time>2016-03-16T13:37:26Z</time>
      </trkpt>
      <trkpt lat="47.81051" lon="-3.33956">
        <ele>55.89</ele>
        <time>2016-03-16T13:37:40Z</time>
      </trkpt>
      <trkpt lat="47.81045" lon="-3.33951">
        <ele>54.93</ele>
        <time>2016-03-16T13:37:48Z</time>
      </trkpt>
      <trkpt lat="47.81037" lon="-3.33949">
        <ele>55.41</ele>
        <time>2016-03-16T13:38:01Z</time>
      </trkpt>
      <trkpt lat="47.81036" lon="-3.33948">
        <ele>55.89</ele>
        <time>2016-03-16T13:38:04Z</time>
      </trkpt>
      <trkpt lat="47.81028" lon="-3.33931">
        <ele>56.86</ele>
        <time>2016-03-16T13:38:20Z</time>
      </trkpt>
      <trkpt lat="47.81019" lon="-3.33919">
        <ele>55.89</ele>
        <time>2016-03-16T13:38:34Z</time>
      </trkpt>
      <trkpt lat="47.81008" lon="-3.33903">
        <ele>56.37</ele>
        <time>2016-03-16T13:38:53Z</time>
      </trkpt>
      <trkpt lat="47.80992" lon="-3.33886">
        <ele>58.3</ele>
        <time>2016-03-16T13:39:12Z</time>
      </trkpt>
      <trkpt lat="47.80979" lon="-3.33868">
        <ele>57.82</ele>
        <time>2016-03-16T13:39:31Z</time>
      </trkpt>
      <trkpt lat="47.80969" lon="-3.33854">
        <ele>56.37</ele>
        <time>2016-03-16T13:39:46Z</time>
      </trkpt>
      <trkpt lat="47.80963" lon="-3.33835">
        <ele>56.86</ele>
        <time>2016-03-16T13:39:59Z</time>
      </trkpt>
      <trkpt lat="47.8096" lon="-3.33817">
        <ele>55.41</ele>
        <time>2016-03-16T13:40:13Z</time>
      </trkpt>
      <trkpt lat="47.80952" lon="-3.33797">
        <ele>53.49</ele>
        <time>2016-03-16T13:40:32Z</time>
      </trkpt>
      <trkpt lat="47.80951" lon="-3.33795">
        <ele>53.97</ele>
        <time>2016-03-16T13:40:33Z</time>
      </trkpt>
      <trkpt lat="47.80949" lon="-3.33768">
        <ele>52.53</ele>
        <time>2016-03-16T13:40:51Z</time>
      </trkpt>
      <trkpt lat="47.8095" lon="-3.33756">
        <ele>51.57</ele>
        <time>2016-03-16T13:40:57Z</time>
      </trkpt>
      <trkpt lat="47.80947" lon="-3.33733">
        <ele>50.13</ele>
        <time>2016-03-16T13:41:12Z</time>
      </trkpt>
      <trkpt lat="47.80942" lon="-3.33706">
        <ele>49.16</ele>
        <time>2016-03-16T13:41:29Z</time>
      </trkpt>
      <trkpt lat="47.80939" lon="-3.33678">
        <ele>46.76</ele>
        <time>2016-03-16T13:41:46Z</time>
      </trkpt>
      <trkpt lat="47.80932" lon="-3.33657">
        <ele>46.76</ele>
        <time>2016-03-16T13:42:02Z</time>
      </trkpt>
      <trkpt lat="47.80933" lon="-3.33639">
        <ele>44.84</ele>
        <time>2016-03-16T13:42:13Z</time>
      </trkpt>
      <trkpt lat="47.80928" lon="-3.33632">
        <ele>43.88</ele>
        <time>2016-03-16T13:42:19Z</time>
      </trkpt>
      <trkpt lat="47.80928" lon="-3.33629">
        <ele>43.88</ele>
        <time>2016-03-16T13:42:22Z</time>
      </trkpt>
      <trkpt lat="47.80929" lon="-3.33626">
        <ele>45.8</ele>
        <time>2016-03-16T13:42:27Z</time>
      </trkpt>
      <trkpt lat="47.80929" lon="-3.33624">
        <ele>44.84</ele>
        <time>2016-03-16T13:42:30Z</time>
      </trkpt>
      <trkpt lat="47.80929" lon="-3.33622">
        <ele>44.36</ele>
        <time>2016-03-16T13:42:32Z</time>
      </trkpt>
      <trkpt lat="47.8093" lon="-3.33619">
        <ele>43.88</ele>
        <time>2016-03-16T13:42:34Z</time>
      </trkpt>
      <trkpt lat="47.80931" lon="-3.33592">
        <ele>41.95</ele>
        <time>2016-03-16T13:42:51Z</time>
      </trkpt>
      <trkpt lat="47.80933" lon="-3.33564">
        <ele>40.99</ele>
        <time>2016-03-16T13:43:10Z</time>
      </trkpt>
      <trkpt lat="47.80928" lon="-3.33549">
        <ele>40.51</ele>
        <time>2016-03-16T13:43:20Z</time>
      </trkpt>
      <trkpt lat="47.80925" lon="-3.33546">
        <ele>40.99</ele>
        <time>2016-03-16T13:43:22Z</time>
      </trkpt>
      <trkpt lat="47.80909" lon="-3.33548">
        <ele>41.47</ele>
        <time>2016-03-16T13:43:36Z</time>
      </trkpt>
      <trkpt lat="47.80895" lon="-3.33553">
        <ele>40.99</ele>
        <time>2016-03-16T13:43:52Z</time>
      </trkpt>
      <trkpt lat="47.80884" lon="-3.33557">
        <ele>40.51</ele>
        <time>2016-03-16T13:44:07Z</time>
      </trkpt>
      <trkpt lat="47.80872" lon="-3.33553">
        <ele>40.51</ele>
        <time>2016-03-16T13:44:20Z</time>
      </trkpt>
      <trkpt lat="47.80864" lon="-3.33551">
        <ele>39.07</ele>
        <time>2016-03-16T13:44:34Z</time>
      </trkpt>
      <trkpt lat="47.80858" lon="-3.33539">
        <ele>37.63</ele>
        <time>2016-03-16T13:44:49Z</time>
      </trkpt>
      <trkpt lat="47.80857" lon="-3.33536">
        <ele>36.67</ele>
        <time>2016-03-16T13:44:57Z</time>
      </trkpt>
      <trkpt lat="47.80845" lon="-3.33528">
        <ele>35.71</ele>
        <time>2016-03-16T13:45:09Z</time>
      </trkpt>
      <trkpt lat="47.8084" lon="-3.33528">
        <ele>36.19</ele>
        <time>2016-03-16T13:45:14Z</time>
      </trkpt>
      <trkpt lat="47.80828" lon="-3.33527">
        <ele>34.74</ele>
        <time>2016-03-16T13:45:28Z</time>
      </trkpt>
      <trkpt lat="47.80815" lon="-3.33522">
        <ele>34.26</ele>
        <time>2016-03-16T13:45:42Z</time>
      </trkpt>
      <trkpt lat="47.80801" lon="-3.33527">
        <ele>33.78</ele>
        <time>2016-03-16T13:45:59Z</time>
      </trkpt>
      <trkpt lat="47.8079" lon="-3.33532">
        <ele>33.3</ele>
        <time>2016-03-16T13:46:15Z</time>
      </trkpt>
      <trkpt lat="47.80782" lon="-3.33532">
        <ele>33.78</ele>
        <time>2016-03-16T13:46:25Z</time>
      </trkpt>
      <trkpt lat="47.8077" lon="-3.33534">
        <ele>34.26</ele>
        <time>2016-03-16T13:46:39Z</time>
      </trkpt>
      <trkpt lat="47.80767" lon="-3.33538">
        <ele>33.78</ele>
        <time>2016-03-16T13:46:44Z</time>
      </trkpt>
      <trkpt lat="47.8076" lon="-3.33544">
        <ele>33.78</ele>
        <time>2016-03-16T13:46:51Z</time>
      </trkpt>
      <trkpt lat="47.80756" lon="-3.33547">
        <ele>34.74</ele>
        <time>2016-03-16T13:46:56Z</time>
      </trkpt>
      <trkpt lat="47.80748" lon="-3.33561">
        <ele>33.78</ele>
        <time>2016-03-16T13:47:11Z</time>
      </trkpt>
      <trkpt lat="47.80734" lon="-3.33564">
        <ele>33.3</ele>
        <time>2016-03-16T13:47:28Z</time>
      </trkpt>
      <trkpt lat="47.80721" lon="-3.33575">
        <ele>33.3</ele>
        <time>2016-03-16T13:47:45Z</time>
      </trkpt>
      <trkpt lat="47.80708" lon="-3.33583">
        <ele>32.82</ele>
        <time>2016-03-16T13:47:59Z</time>
      </trkpt>
      <trkpt lat="47.80696" lon="-3.33597">
        <ele>31.86</ele>
        <time>2016-03-16T13:48:15Z</time>
      </trkpt>
      <trkpt lat="47.80683" lon="-3.33611">
        <ele>30.9</ele>
        <time>2016-03-16T13:48:30Z</time>
      </trkpt>
      <trkpt lat="47.80675" lon="-3.33623">
        <ele>27.05</ele>
        <time>2016-03-16T13:48:42Z</time>
      </trkpt>
      <trkpt lat="47.80661" lon="-3.33641">
        <ele>29.46</ele>
        <time>2016-03-16T13:48:59Z</time>
      </trkpt>
      <trkpt lat="47.80661" lon="-3.33641">
        <ele>29.46</ele>
        <time>2016-03-16T13:49:00Z</time>
      </trkpt>
      <trkpt lat="47.80657" lon="-3.33635">
        <ele>28.98</ele>
        <time>2016-03-16T13:49:04Z</time>
      </trkpt>
      <trkpt lat="47.80647" lon="-3.33636">
        <ele>27.53</ele>
        <time>2016-03-16T13:49:18Z</time>
      </trkpt>
      <trkpt lat="47.80632" lon="-3.33644">
        <ele>28.98</ele>
        <time>2016-03-16T13:49:36Z</time>
      </trkpt>
      <trkpt lat="47.80614" lon="-3.33647">
        <ele>28.5</ele>
        <time>2016-03-16T13:49:54Z</time>
      </trkpt>
      <trkpt lat="47.80598" lon="-3.33654">
        <ele>27.53</ele>
        <time>2016-03-16T13:50:11Z</time>
      </trkpt>
      <trkpt lat="47.80581" lon="-3.33665">
        <ele>28.5</ele>
        <time>2016-03-16T13:50:29Z</time>
      </trkpt>
      <trkpt lat="47.80569" lon="-3.33657">
        <ele>28.5</ele>
        <time>2016-03-16T13:50:44Z</time>
      </trkpt>
      <trkpt lat="47.80558" lon="-3.33649">
        <ele>28.02</ele>
        <time>2016-03-16T13:50:53Z</time>
      </trkpt>
      <trkpt lat="47.80539" lon="-3.33637">
        <ele>27.05</ele>
        <time>2016-03-16T13:51:11Z</time>
      </trkpt>
      <trkpt lat="47.80527" lon="-3.33635">
        <ele>26.57</ele>
        <time>2016-03-16T13:51:27Z</time>
      </trkpt>
      <trkpt lat="47.80514" lon="-3.33645">
        <ele>26.09</ele>
        <time>2016-03-16T13:51:44Z</time>
      </trkpt>
      <trkpt lat="47.805" lon="-3.33652">
        <ele>27.05</ele>
        <time>2016-03-16T13:52:00Z</time>
      </trkpt>
      <trkpt lat="47.80499" lon="-3.33653">
        <ele>26.57</ele>
        <time>2016-03-16T13:52:01Z</time>
      </trkpt>
      <trkpt lat="47.80483" lon="-3.33663">
        <ele>27.53</ele>
        <time>2016-03-16T13:52:19Z</time>
      </trkpt>
      <trkpt lat="47.80461" lon="-3.33692">
        <ele>28.98</ele>
        <time>2016-03-16T13:52:36Z</time>
      </trkpt>
      <trkpt lat="47.80442" lon="-3.33705">
        <ele>29.94</ele>
        <time>2016-03-16T13:52:56Z</time>
      </trkpt>
      <trkpt lat="47.80429" lon="-3.33718">
        <ele>29.46</ele>
        <time>2016-03-16T13:53:12Z</time>
      </trkpt>
      <trkpt lat="47.80416" lon="-3.33725">
        <ele>28.02</ele>
        <time>2016-03-16T13:53:28Z</time>
      </trkpt>
      <trkpt lat="47.80401" lon="-3.33741">
        <ele>26.57</ele>
        <time>2016-03-16T13:53:46Z</time>
      </trkpt>
      <trkpt lat="47.80387" lon="-3.33753">
        <ele>25.61</ele>
        <time>2016-03-16T13:54:02Z</time>
      </trkpt>
      <trkpt lat="47.80378" lon="-3.33768">
        <ele>23.69</ele>
        <time>2016-03-16T13:54:18Z</time>
      </trkpt>
      <trkpt lat="47.80382" lon="-3.33795">
        <ele>23.69</ele>
        <time>2016-03-16T13:54:34Z</time>
      </trkpt>
      <trkpt lat="47.80387" lon="-3.33806">
        <ele>23.69</ele>
        <time>2016-03-16T13:54:44Z</time>
      </trkpt>
      <trkpt lat="47.80399" lon="-3.33815">
        <ele>26.57</ele>
        <time>2016-03-16T13:55:01Z</time>
      </trkpt>
      <trkpt lat="47.80412" lon="-3.33824">
        <ele>25.61</ele>
        <time>2016-03-16T13:55:18Z</time>
      </trkpt>
      <trkpt lat="47.80429" lon="-3.33839">
        <ele>28.02</ele>
        <time>2016-03-16T13:55:37Z</time>
      </trkpt>
      <trkpt lat="47.80442" lon="-3.33853">
        <ele>28.02</ele>
        <time>2016-03-16T13:55:54Z</time>
      </trkpt>
      <trkpt lat="47.80447" lon="-3.33861">
        <ele>29.46</ele>
        <time>2016-03-16T13:56:10Z</time>
      </trkpt>
      <trkpt lat="47.80442" lon="-3.33863">
        <ele>28.98</ele>
        <time>2016-03-16T13:56:17Z</time>
      </trkpt>
      <trkpt lat="47.80434" lon="-3.33873">
        <ele>28.5</ele>
        <time>2016-03-16T13:56:28Z</time>
      </trkpt>
      <trkpt lat="47.80431" lon="-3.33887">
        <ele>28.5</ele>
        <time>2016-03-16T13:56:36Z</time>
      </trkpt>
      <trkpt lat="47.80428" lon="-3.3391">
        <ele>28.98</ele>
        <time>2016-03-16T13:56:53Z</time>
      </trkpt>
      <trkpt lat="47.80425" lon="-3.33929">
        <ele>28.5</ele>
        <time>2016-03-16T13:57:07Z</time>
      </trkpt>
      <trkpt lat="47.80421" lon="-3.3395">
        <ele>29.94</ele>
        <time>2016-03-16T13:57:24Z</time>
      </trkpt>
      <trkpt lat="47.80417" lon="-3.33966">
        <ele>32.82</ele>
        <time>2016-03-16T13:57:39Z</time>
      </trkpt>
      <trkpt lat="47.80417" lon="-3.3397">
        <ele>30.9</ele>
        <time>2016-03-16T13:57:42Z</time>
      </trkpt>
      <trkpt lat="47.80417" lon="-3.33973">
        <ele>31.38</ele>
        <time>2016-03-16T13:57:44Z</time>
      </trkpt>
      <trkpt lat="47.80427" lon="-3.33994">
        <ele>32.34</ele>
        <time>2016-03-16T13:58:03Z</time>
      </trkpt>
      <trkpt lat="47.80428" lon="-3.33996">
        <ele>32.34</ele>
        <time>2016-03-16T13:58:05Z</time>
      </trkpt>
      <trkpt lat="47.80441" lon="-3.3401">
        <ele>33.78</ele>
        <time>2016-03-16T13:58:22Z</time>
      </trkpt>
      <trkpt lat="47.80452" lon="-3.34017">
        <ele>34.74</ele>
        <time>2016-03-16T13:58:35Z</time>
      </trkpt>
      <trkpt lat="47.80466" lon="-3.34034">
        <ele>34.74</ele>
        <time>2016-03-16T13:58:53Z</time>
      </trkpt>
      <trkpt lat="47.80479" lon="-3.34043">
        <ele>35.23</ele>
        <time>2016-03-16T13:59:10Z</time>
      </trkpt>
      <trkpt lat="47.80495" lon="-3.34049">
        <ele>36.19</ele>
        <time>2016-03-16T13:59:26Z</time>
      </trkpt>
      <trkpt lat="47.80503" lon="-3.34051">
        <ele>35.71</ele>
        <time>2016-03-16T13:59:35Z</time>
      </trkpt>
      <trkpt lat="47.80516" lon="-3.34062">
        <ele>36.67</ele>
        <time>2016-03-16T13:59:51Z</time>
      </trkpt>
      <trkpt lat="47.80518" lon="-3.34066">
        <ele>36.67</ele>
        <time>2016-03-16T13:59:55Z</time>
      </trkpt>
      <trkpt lat="47.80518" lon="-3.3409">
        <ele>35.71</ele>
        <time>2016-03-16T14:00:12Z</time>
      </trkpt>
      <trkpt lat="47.80517" lon="-3.34115">
        <ele>35.71</ele>
        <time>2016-03-16T14:00:27Z</time>
      </trkpt>
      <trkpt lat="47.80514" lon="-3.34114">
        <ele>34.74</ele>
        <time>2016-03-16T14:00:43Z</time>
      </trkpt>
      <trkpt lat="47.80513" lon="-3.34116">
        <ele>36.19</ele>
        <time>2016-03-16T14:01:03Z</time>
      </trkpt>
      <trkpt lat="47.80515" lon="-3.34113">
        <ele>35.71</ele>
        <time>2016-03-16T14:01:27Z</time>
      </trkpt>
      <trkpt lat="47.80515" lon="-3.34117">
        <ele>34.74</ele>
        <time>2016-03-16T14:01:43Z</time>
      </trkpt>
      <trkpt lat="47.80515" lon="-3.34115">
        <ele>35.71</ele>
        <time>2016-03-16T14:02:06Z</time>
      </trkpt>
      <trkpt lat="47.8051" lon="-3.34115">
        <ele>34.74</ele>
        <time>2016-03-16T14:02:21Z</time>
      </trkpt>
      <trkpt lat="47.80505" lon="-3.34115">
        <ele>34.74</ele>
        <time>2016-03-16T14:02:25Z</time>
      </trkpt>
      <trkpt lat="47.80501" lon="-3.34118">
        <ele>35.23</ele>
        <time>2016-03-16T14:02:29Z</time>
      </trkpt>
      <trkpt lat="47.80481" lon="-3.34122">
        <ele>34.74</ele>
        <time>2016-03-16T14:02:47Z</time>
      </trkpt>
      <trkpt lat="47.80466" lon="-3.34127">
        <ele>34.74</ele>
        <time>2016-03-16T14:03:01Z</time>
      </trkpt>
      <trkpt lat="47.80445" lon="-3.3413">
        <ele>35.23</ele>
        <time>2016-03-16T14:03:21Z</time>
      </trkpt>
      <trkpt lat="47.80428" lon="-3.34136">
        <ele>34.74</ele>
        <time>2016-03-16T14:03:39Z</time>
      </trkpt>
      <trkpt lat="47.80427" lon="-3.34136">
        <ele>34.74</ele>
        <time>2016-03-16T14:03:40Z</time>
      </trkpt>
      <trkpt lat="47.80409" lon="-3.34139">
        <ele>35.23</ele>
        <time>2016-03-16T14:03:57Z</time>
      </trkpt>
      <trkpt lat="47.8039" lon="-3.34133">
        <ele>35.71</ele>
        <time>2016-03-16T14:04:16Z</time>
      </trkpt>
      <trkpt lat="47.80371" lon="-3.34129">
        <ele>35.71</ele>
        <time>2016-03-16T14:04:34Z</time>
      </trkpt>
      <trkpt lat="47.80367" lon="-3.34128">
        <ele>35.71</ele>
        <time>2016-03-16T14:04:38Z</time>
      </trkpt>
      <trkpt lat="47.80348" lon="-3.34118">
        <ele>34.26</ele>
        <time>2016-03-16T14:05:00Z</time>
      </trkpt>
      <trkpt lat="47.80327" lon="-3.3411">
        <ele>33.78</ele>
        <time>2016-03-16T14:05:21Z</time>
      </trkpt>
      <trkpt lat="47.80307" lon="-3.34104">
        <ele>32.34</ele>
        <time>2016-03-16T14:05:41Z</time>
      </trkpt>
      <trkpt lat="47.80287" lon="-3.34099">
        <ele>31.86</ele>
        <time>2016-03-16T14:06:00Z</time>
      </trkpt>
      <trkpt lat="47.80269" lon="-3.34097">
        <ele>30.42</ele>
        <time>2016-03-16T14:06:18Z</time>
      </trkpt>
      <trkpt lat="47.8025" lon="-3.34099">
        <ele>28.5</ele>
        <time>2016-03-16T14:06:36Z</time>
      </trkpt>
      <trkpt lat="47.80235" lon="-3.341">
        <ele>27.53</ele>
        <time>2016-03-16T14:06:51Z</time>
      </trkpt>
      <trkpt lat="47.80217" lon="-3.34106">
        <ele>25.61</ele>
        <time>2016-03-16T14:07:10Z</time>
      </trkpt>
      <trkpt lat="47.80201" lon="-3.34109">
        <ele>24.17</ele>
        <time>2016-03-16T14:07:26Z</time>
      </trkpt>
      <trkpt lat="47.80186" lon="-3.34111">
        <ele>23.69</ele>
        <time>2016-03-16T14:07:44Z</time>
      </trkpt>
      <trkpt lat="47.80169" lon="-3.34114">
        <ele>23.69</ele>
        <time>2016-03-16T14:08:02Z</time>
      </trkpt>
      <trkpt lat="47.80163" lon="-3.34122">
        <ele>23.21</ele>
        <time>2016-03-16T14:08:17Z</time>
      </trkpt>
      <trkpt lat="47.80164" lon="-3.34127">
        <ele>23.21</ele>
        <time>2016-03-16T14:08:20Z</time>
      </trkpt>
      <trkpt lat="47.80159" lon="-3.34159">
        <ele>23.21</ele>
        <time>2016-03-16T14:08:35Z</time>
      </trkpt>
      <trkpt lat="47.80164" lon="-3.34183">
        <ele>23.69</ele>
        <time>2016-03-16T14:08:50Z</time>
      </trkpt>
      <trkpt lat="47.80169" lon="-3.34204">
        <ele>25.13</ele>
        <time>2016-03-16T14:09:06Z</time>
      </trkpt>
      <trkpt lat="47.80178" lon="-3.3423">
        <ele>25.13</ele>
        <time>2016-03-16T14:09:24Z</time>
      </trkpt>
      <trkpt lat="47.80179" lon="-3.3424">
        <ele>25.13</ele>
        <time>2016-03-16T14:09:31Z</time>
      </trkpt>
      <trkpt lat="47.80177" lon="-3.3426">
        <ele>27.53</ele>
        <time>2016-03-16T14:09:49Z</time>
      </trkpt>
      <trkpt lat="47.80178" lon="-3.34278">
        <ele>28.5</ele>
        <time>2016-03-16T14:10:05Z</time>
      </trkpt>
      <trkpt lat="47.80182" lon="-3.34285">
        <ele>28.5</ele>
        <time>2016-03-16T14:10:18Z</time>
      </trkpt>
      <trkpt lat="47.80182" lon="-3.34283">
        <ele>28.5</ele>
        <time>2016-03-16T14:10:32Z</time>
      </trkpt>
      <trkpt lat="47.80181" lon="-3.3428">
        <ele>28.02</ele>
        <time>2016-03-16T14:10:58Z</time>
      </trkpt>
      <trkpt lat="47.80182" lon="-3.34285">
        <ele>27.53</ele>
        <time>2016-03-16T14:11:22Z</time>
      </trkpt>
      <trkpt lat="47.80182" lon="-3.34288">
        <ele>28.02</ele>
        <time>2016-03-16T14:11:43Z</time>
      </trkpt>
      <trkpt lat="47.80178" lon="-3.34303">
        <ele>28.02</ele>
        <time>2016-03-16T14:11:57Z</time>
      </trkpt>
      <trkpt lat="47.80184" lon="-3.34323">
        <ele>28.98</ele>
        <time>2016-03-16T14:12:15Z</time>
      </trkpt>
      <trkpt lat="47.80183" lon="-3.34336">
        <ele>28.98</ele>
        <time>2016-03-16T14:12:30Z</time>
      </trkpt>
      <trkpt lat="47.80174" lon="-3.34347">
        <ele>29.46</ele>
        <time>2016-03-16T14:12:45Z</time>
      </trkpt>
      <trkpt lat="47.80172" lon="-3.34347">
        <ele>28.98</ele>
        <time>2016-03-16T14:12:47Z</time>
      </trkpt>
      <trkpt lat="47.80171" lon="-3.34347">
        <ele>28.98</ele>
        <time>2016-03-16T14:12:49Z</time>
      </trkpt>
      <trkpt lat="47.8016" lon="-3.34357">
        <ele>30.42</ele>
        <time>2016-03-16T14:13:04Z</time>
      </trkpt>
      <trkpt lat="47.8015" lon="-3.34369">
        <ele>30.42</ele>
        <time>2016-03-16T14:13:18Z</time>
      </trkpt>
      <trkpt lat="47.80142" lon="-3.3438">
        <ele>31.38</ele>
        <time>2016-03-16T14:13:31Z</time>
      </trkpt>
      <trkpt lat="47.80131" lon="-3.34395">
        <ele>32.34</ele>
        <time>2016-03-16T14:13:47Z</time>
      </trkpt>
      <trkpt lat="47.80117" lon="-3.34415">
        <ele>33.3</ele>
        <time>2016-03-16T14:14:08Z</time>
      </trkpt>
      <trkpt lat="47.8011" lon="-3.34427">
        <ele>34.26</ele>
        <time>2016-03-16T14:14:23Z</time>
      </trkpt>
      <trkpt lat="47.80109" lon="-3.34428">
        <ele>34.26</ele>
        <time>2016-03-16T14:14:24Z</time>
      </trkpt>
      <trkpt lat="47.80107" lon="-3.34431">
        <ele>34.26</ele>
        <time>2016-03-16T14:14:27Z</time>
      </trkpt>
      <trkpt lat="47.80101" lon="-3.34443">
        <ele>34.26</ele>
        <time>2016-03-16T14:14:42Z</time>
      </trkpt>
      <trkpt lat="47.80091" lon="-3.34459">
        <ele>35.71</ele>
        <time>2016-03-16T14:14:58Z</time>
      </trkpt>
      <trkpt lat="47.80091" lon="-3.3446">
        <ele>35.71</ele>
        <time>2016-03-16T14:14:59Z</time>
      </trkpt>
      <trkpt lat="47.80083" lon="-3.34468">
        <ele>35.71</ele>
        <time>2016-03-16T14:15:13Z</time>
      </trkpt>
      <trkpt lat="47.80076" lon="-3.34479">
        <ele>35.71</ele>
        <time>2016-03-16T14:15:25Z</time>
      </trkpt>
      <trkpt lat="47.80065" lon="-3.34494">
        <ele>36.67</ele>
        <time>2016-03-16T14:15:42Z</time>
      </trkpt>
      <trkpt lat="47.80059" lon="-3.34505">
        <ele>37.15</ele>
        <time>2016-03-16T14:15:52Z</time>
      </trkpt>
      <trkpt lat="47.80054" lon="-3.34526">
        <ele>38.11</ele>
        <time>2016-03-16T14:16:08Z</time>
      </trkpt>
      <trkpt lat="47.80054" lon="-3.34529">
        <ele>39.07</ele>
        <time>2016-03-16T14:16:10Z</time>
      </trkpt>
      <trkpt lat="47.80042" lon="-3.34547">
        <ele>40.51</ele>
        <time>2016-03-16T14:16:27Z</time>
      </trkpt>
      <trkpt lat="47.80027" lon="-3.34565">
        <ele>40.99</ele>
        <time>2016-03-16T14:16:45Z</time>
      </trkpt>
      <trkpt lat="47.80014" lon="-3.34588">
        <ele>41.47</ele>
        <time>2016-03-16T14:17:05Z</time>
      </trkpt>
      <trkpt lat="47.80003" lon="-3.34609">
        <ele>41.47</ele>
        <time>2016-03-16T14:17:22Z</time>
      </trkpt>
      <trkpt lat="47.79993" lon="-3.34627">
        <ele>41.47</ele>
        <time>2016-03-16T14:17:37Z</time>
      </trkpt>
      <trkpt lat="47.7998" lon="-3.34646">
        <ele>41.47</ele>
        <time>2016-03-16T14:17:54Z</time>
      </trkpt>
      <trkpt lat="47.79966" lon="-3.34665">
        <ele>40.99</ele>
        <time>2016-03-16T14:18:11Z</time>
      </trkpt>
      <trkpt lat="47.79953" lon="-3.34684">
        <ele>39.55</ele>
        <time>2016-03-16T14:18:29Z</time>
      </trkpt>
      <trkpt lat="47.79949" lon="-3.34685">
        <ele>40.03</ele>
        <time>2016-03-16T14:18:32Z</time>
      </trkpt>
      <trkpt lat="47.79932" lon="-3.34702">
        <ele>39.55</ele>
        <time>2016-03-16T14:18:53Z</time>
      </trkpt>
      <trkpt lat="47.79928" lon="-3.34705">
        <ele>40.03</ele>
        <time>2016-03-16T14:18:57Z</time>
      </trkpt>
      <trkpt lat="47.79925" lon="-3.3471">
        <ele>39.55</ele>
        <time>2016-03-16T14:19:01Z</time>
      </trkpt>
      <trkpt lat="47.79914" lon="-3.34725">
        <ele>40.03</ele>
        <time>2016-03-16T14:19:16Z</time>
      </trkpt>
      <trkpt lat="47.79901" lon="-3.34745">
        <ele>40.03</ele>
        <time>2016-03-16T14:19:33Z</time>
      </trkpt>
      <trkpt lat="47.79891" lon="-3.34763">
        <ele>40.03</ele>
        <time>2016-03-16T14:19:48Z</time>
      </trkpt>
      <trkpt lat="47.7988" lon="-3.3478">
        <ele>40.51</ele>
        <time>2016-03-16T14:20:05Z</time>
      </trkpt>
      <trkpt lat="47.79878" lon="-3.34785">
        <ele>40.03</ele>
        <time>2016-03-16T14:20:09Z</time>
      </trkpt>
      <trkpt lat="47.79877" lon="-3.34788">
        <ele>40.03</ele>
        <time>2016-03-16T14:20:11Z</time>
      </trkpt>
      <trkpt lat="47.79866" lon="-3.34805">
        <ele>40.51</ele>
        <time>2016-03-16T14:20:26Z</time>
      </trkpt>
      <trkpt lat="47.79857" lon="-3.34823">
        <ele>40.51</ele>
        <time>2016-03-16T14:20:43Z</time>
      </trkpt>
      <trkpt lat="47.79848" lon="-3.34839">
        <ele>40.51</ele>
        <time>2016-03-16T14:20:57Z</time>
      </trkpt>
      <trkpt lat="47.79839" lon="-3.34856">
        <ele>40.99</ele>
        <time>2016-03-16T14:21:13Z</time>
      </trkpt>
      <trkpt lat="47.79836" lon="-3.34873">
        <ele>41.47</ele>
        <time>2016-03-16T14:21:28Z</time>
      </trkpt>
      <trkpt lat="47.79835" lon="-3.34881">
        <ele>41.47</ele>
        <time>2016-03-16T14:21:33Z</time>
      </trkpt>
      <trkpt lat="47.79839" lon="-3.34894">
        <ele>42.44</ele>
        <time>2016-03-16T14:21:47Z</time>
      </trkpt>
      <trkpt lat="47.79846" lon="-3.34901">
        <ele>41.95</ele>
        <time>2016-03-16T14:22:07Z</time>
      </trkpt>
      <trkpt lat="47.79852" lon="-3.34907">
        <ele>42.44</ele>
        <time>2016-03-16T14:22:14Z</time>
      </trkpt>
      <trkpt lat="47.79867" lon="-3.34919">
        <ele>42.92</ele>
        <time>2016-03-16T14:22:31Z</time>
      </trkpt>
      <trkpt lat="47.79868" lon="-3.3492">
        <ele>42.92</ele>
        <time>2016-03-16T14:22:33Z</time>
      </trkpt>
      <trkpt lat="47.79882" lon="-3.34909">
        <ele>41.95</ele>
        <time>2016-03-16T14:22:49Z</time>
      </trkpt>
      <trkpt lat="47.79899" lon="-3.34911">
        <ele>42.92</ele>
        <time>2016-03-16T14:23:06Z</time>
      </trkpt>
      <trkpt lat="47.79914" lon="-3.34913">
        <ele>43.4</ele>
        <time>2016-03-16T14:23:22Z</time>
      </trkpt>
      <trkpt lat="47.79927" lon="-3.34916">
        <ele>43.4</ele>
        <time>2016-03-16T14:23:36Z</time>
      </trkpt>
      <trkpt lat="47.7994" lon="-3.3492">
        <ele>43.88</ele>
        <time>2016-03-16T14:23:52Z</time>
      </trkpt>
      <trkpt lat="47.79953" lon="-3.34928">
        <ele>43.88</ele>
        <time>2016-03-16T14:24:10Z</time>
      </trkpt>
      <trkpt lat="47.79974" lon="-3.34931">
        <ele>43.88</ele>
        <time>2016-03-16T14:24:30Z</time>
      </trkpt>
      <trkpt lat="47.79994" lon="-3.3494">
        <ele>44.84</ele>
        <time>2016-03-16T14:24:49Z</time>
      </trkpt>
      <trkpt lat="47.80007" lon="-3.34948">
        <ele>44.36</ele>
        <time>2016-03-16T14:25:03Z</time>
      </trkpt>
      <trkpt lat="47.80021" lon="-3.34958">
        <ele>45.8</ele>
        <time>2016-03-16T14:25:19Z</time>
      </trkpt>
      <trkpt lat="47.80034" lon="-3.34972">
        <ele>45.8</ele>
        <time>2016-03-16T14:25:35Z</time>
      </trkpt>
      <trkpt lat="47.80048" lon="-3.34983">
        <ele>46.28</ele>
        <time>2016-03-16T14:25:51Z</time>
      </trkpt>
      <trkpt lat="47.80061" lon="-3.34995">
        <ele>46.76</ele>
        <time>2016-03-16T14:26:07Z</time>
      </trkpt>
      <trkpt lat="47.80062" lon="-3.34997">
        <ele>47.24</ele>
        <time>2016-03-16T14:26:09Z</time>
      </trkpt>
      <trkpt lat="47.8007" lon="-3.35003">
        <ele>47.72</ele>
        <time>2016-03-16T14:26:19Z</time>
      </trkpt>
      <trkpt lat="47.80071" lon="-3.35005">
        <ele>47.72</ele>
        <time>2016-03-16T14:26:22Z</time>
      </trkpt>
      <trkpt lat="47.80086" lon="-3.35017">
        <ele>47.72</ele>
        <time>2016-03-16T14:26:40Z</time>
      </trkpt>
      <trkpt lat="47.801" lon="-3.35026">
        <ele>48.2</ele>
        <time>2016-03-16T14:26:55Z</time>
      </trkpt>
      <trkpt lat="47.80109" lon="-3.3504">
        <ele>49.16</ele>
        <time>2016-03-16T14:27:10Z</time>
      </trkpt>
      <trkpt lat="47.80113" lon="-3.35043">
        <ele>49.16</ele>
        <time>2016-03-16T14:27:14Z</time>
      </trkpt>
      <trkpt lat="47.80123" lon="-3.35052">
        <ele>49.65</ele>
        <time>2016-03-16T14:27:27Z</time>
      </trkpt>
      <trkpt lat="47.80128" lon="-3.35052">
        <ele>49.16</ele>
        <time>2016-03-16T14:27:42Z</time>
      </trkpt>
      <trkpt lat="47.80128" lon="-3.35053">
        <ele>48.68</ele>
        <time>2016-03-16T14:27:43Z</time>
      </trkpt>
      <trkpt lat="47.80129" lon="-3.35057">
        <ele>48.68</ele>
        <time>2016-03-16T14:27:46Z</time>
      </trkpt>
      <trkpt lat="47.80143" lon="-3.35075">
        <ele>49.65</ele>
        <time>2016-03-16T14:28:03Z</time>
      </trkpt>
      <trkpt lat="47.80157" lon="-3.35088">
        <ele>50.13</ele>
        <time>2016-03-16T14:28:20Z</time>
      </trkpt>
      <trkpt lat="47.80162" lon="-3.35093">
        <ele>50.13</ele>
        <time>2016-03-16T14:28:34Z</time>
      </trkpt>
      <trkpt lat="47.80177" lon="-3.35109">
        <ele>49.65</ele>
        <time>2016-03-16T14:28:53Z</time>
      </trkpt>
      <trkpt lat="47.80178" lon="-3.35111">
        <ele>50.13</ele>
        <time>2016-03-16T14:29:08Z</time>
      </trkpt>
      <trkpt lat="47.80191" lon="-3.3512">
        <ele>49.65</ele>
        <time>2016-03-16T14:29:22Z</time>
      </trkpt>
      <trkpt lat="47.80204" lon="-3.35135">
        <ele>49.16</ele>
        <time>2016-03-16T14:29:39Z</time>
      </trkpt>
      <trkpt lat="47.80211" lon="-3.3514">
        <ele>49.16</ele>
        <time>2016-03-16T14:29:53Z</time>
      </trkpt>
      <trkpt lat="47.80221" lon="-3.35152">
        <ele>48.2</ele>
        <time>2016-03-16T14:30:03Z</time>
      </trkpt>
      <trkpt lat="47.80236" lon="-3.35171">
        <ele>48.2</ele>
        <time>2016-03-16T14:30:23Z</time>
      </trkpt>
      <trkpt lat="47.80249" lon="-3.35185">
        <ele>47.72</ele>
        <time>2016-03-16T14:30:39Z</time>
      </trkpt>
      <trkpt lat="47.80256" lon="-3.35188">
        <ele>47.72</ele>
        <time>2016-03-16T14:30:53Z</time>
      </trkpt>
      <trkpt lat="47.80256" lon="-3.3519">
        <ele>47.72</ele>
        <time>2016-03-16T14:30:54Z</time>
      </trkpt>
      <trkpt lat="47.80272" lon="-3.35198">
        <ele>48.2</ele>
        <time>2016-03-16T14:31:09Z</time>
      </trkpt>
      <trkpt lat="47.8028" lon="-3.35197">
        <ele>46.76</ele>
        <time>2016-03-16T14:31:15Z</time>
      </trkpt>
      <trkpt lat="47.80281" lon="-3.35195">
        <ele>47.72</ele>
        <time>2016-03-16T14:31:17Z</time>
      </trkpt>
      <trkpt lat="47.80294" lon="-3.35193">
        <ele>48.2</ele>
        <time>2016-03-16T14:31:33Z</time>
      </trkpt>
      <trkpt lat="47.80309" lon="-3.35184">
        <ele>48.68</ele>
        <time>2016-03-16T14:31:49Z</time>
      </trkpt>
      <trkpt lat="47.8032" lon="-3.3518">
        <ele>48.68</ele>
        <time>2016-03-16T14:32:04Z</time>
      </trkpt>
      <trkpt lat="47.80337" lon="-3.35171">
        <ele>50.13</ele>
        <time>2016-03-16T14:32:21Z</time>
      </trkpt>
      <trkpt lat="47.8035" lon="-3.35161">
        <ele>49.65</ele>
        <time>2016-03-16T14:32:36Z</time>
      </trkpt>
      <trkpt lat="47.80363" lon="-3.35154">
        <ele>50.13</ele>
        <time>2016-03-16T14:32:50Z</time>
      </trkpt>
      <trkpt lat="47.8038" lon="-3.35146">
        <ele>49.65</ele>
        <time>2016-03-16T14:33:08Z</time>
      </trkpt>
      <trkpt lat="47.80394" lon="-3.35138">
        <ele>50.61</ele>
        <time>2016-03-16T14:33:25Z</time>
      </trkpt>
      <trkpt lat="47.80399" lon="-3.35134">
        <ele>50.61</ele>
        <time>2016-03-16T14:33:40Z</time>
      </trkpt>
      <trkpt lat="47.80413" lon="-3.35129">
        <ele>51.57</ele>
        <time>2016-03-16T14:33:55Z</time>
      </trkpt>
      <trkpt lat="47.80428" lon="-3.3512">
        <ele>51.57</ele>
        <time>2016-03-16T14:34:13Z</time>
      </trkpt>
      <trkpt lat="47.80445" lon="-3.35108">
        <ele>51.09</ele>
        <time>2016-03-16T14:34:32Z</time>
      </trkpt>
      <trkpt lat="47.80457" lon="-3.35095">
        <ele>51.57</ele>
        <time>2016-03-16T14:34:48Z</time>
      </trkpt>
      <trkpt lat="47.80468" lon="-3.35083">
        <ele>51.57</ele>
        <time>2016-03-16T14:35:03Z</time>
      </trkpt>
      <trkpt lat="47.8048" lon="-3.3507">
        <ele>52.53</ele>
        <time>2016-03-16T14:35:19Z</time>
      </trkpt>
      <trkpt lat="47.80493" lon="-3.35054">
        <ele>53.01</ele>
        <time>2016-03-16T14:35:37Z</time>
      </trkpt>
      <trkpt lat="47.80504" lon="-3.3504">
        <ele>52.53</ele>
        <time>2016-03-16T14:35:53Z</time>
      </trkpt>
      <trkpt lat="47.80513" lon="-3.35021">
        <ele>52.53</ele>
        <time>2016-03-16T14:36:07Z</time>
      </trkpt>
      <trkpt lat="47.80515" lon="-3.35019">
        <ele>53.01</ele>
        <time>2016-03-16T14:36:09Z</time>
      </trkpt>
      <trkpt lat="47.80528" lon="-3.35006">
        <ele>52.53</ele>
        <time>2016-03-16T14:36:26Z</time>
      </trkpt>
      <trkpt lat="47.80543" lon="-3.34988">
        <ele>52.53</ele>
        <time>2016-03-16T14:36:46Z</time>
      </trkpt>
      <trkpt lat="47.80547" lon="-3.3498">
        <ele>53.01</ele>
        <time>2016-03-16T14:37:01Z</time>
      </trkpt>
      <trkpt lat="47.80553" lon="-3.34974">
        <ele>53.01</ele>
        <time>2016-03-16T14:37:07Z</time>
      </trkpt>
      <trkpt lat="47.8057" lon="-3.34955">
        <ele>52.53</ele>
        <time>2016-03-16T14:37:27Z</time>
      </trkpt>
      <trkpt lat="47.80583" lon="-3.34944">
        <ele>52.05</ele>
        <time>2016-03-16T14:37:43Z</time>
      </trkpt>
      <trkpt lat="47.80593" lon="-3.34928">
        <ele>51.09</ele>
        <time>2016-03-16T14:37:59Z</time>
      </trkpt>
      <trkpt lat="47.80599" lon="-3.34914">
        <ele>50.61</ele>
        <time>2016-03-16T14:38:08Z</time>
      </trkpt>
      <trkpt lat="47.80608" lon="-3.34888">
        <ele>49.16</ele>
        <time>2016-03-16T14:38:26Z</time>
      </trkpt>
      <trkpt lat="47.80616" lon="-3.3486">
        <ele>47.24</ele>
        <time>2016-03-16T14:38:46Z</time>
      </trkpt>
      <trkpt lat="47.80616" lon="-3.34837">
        <ele>45.32</ele>
        <time>2016-03-16T14:39:03Z</time>
      </trkpt>
      <trkpt lat="47.80611" lon="-3.34811">
        <ele>43.4</ele>
        <time>2016-03-16T14:39:20Z</time>
      </trkpt>
      <trkpt lat="47.80614" lon="-3.34786">
        <ele>41.95</ele>
        <time>2016-03-16T14:39:37Z</time>
      </trkpt>
      <trkpt lat="47.80613" lon="-3.3476">
        <ele>42.44</ele>
        <time>2016-03-16T14:39:53Z</time>
      </trkpt>
      <trkpt lat="47.80618" lon="-3.34744">
        <ele>40.99</ele>
        <time>2016-03-16T14:40:06Z</time>
      </trkpt>
      <trkpt lat="47.80622" lon="-3.34722">
        <ele>38.59</ele>
        <time>2016-03-16T14:40:24Z</time>
      </trkpt>
      <trkpt lat="47.8063" lon="-3.34699">
        <ele>36.19</ele>
        <time>2016-03-16T14:40:46Z</time>
      </trkpt>
      <trkpt lat="47.80632" lon="-3.34669">
        <ele>34.26</ele>
        <time>2016-03-16T14:41:07Z</time>
      </trkpt>
      <trkpt lat="47.80619" lon="-3.3465">
        <ele>34.74</ele>
        <time>2016-03-16T14:41:20Z</time>
      </trkpt>
      <trkpt lat="47.80616" lon="-3.34643">
        <ele>34.74</ele>
        <time>2016-03-16T14:41:35Z</time>
      </trkpt>
      <trkpt lat="47.80613" lon="-3.34638">
        <ele>34.74</ele>
        <time>2016-03-16T14:41:56Z</time>
      </trkpt>
      <trkpt lat="47.80615" lon="-3.34637">
        <ele>34.26</ele>
        <time>2016-03-16T14:42:13Z</time>
      </trkpt>
      <trkpt lat="47.80616" lon="-3.34626">
        <ele>34.74</ele>
        <time>2016-03-16T14:42:42Z</time>
      </trkpt>
      <trkpt lat="47.80616" lon="-3.34629">
        <ele>34.74</ele>
        <time>2016-03-16T14:43:12Z</time>
      </trkpt>
      <trkpt lat="47.80619" lon="-3.34643">
        <ele>34.74</ele>
        <time>2016-03-16T14:43:36Z</time>
      </trkpt>
      <trkpt lat="47.80623" lon="-3.34643">
        <ele>34.74</ele>
        <time>2016-03-16T14:43:57Z</time>
      </trkpt>
      <trkpt lat="47.80624" lon="-3.34646">
        <ele>34.26</ele>
        <time>2016-03-16T14:44:18Z</time>
      </trkpt>
      <trkpt lat="47.80623" lon="-3.34639">
        <ele>34.26</ele>
        <time>2016-03-16T14:44:33Z</time>
      </trkpt>
      <trkpt lat="47.80629" lon="-3.3464">
        <ele>31.86</ele>
        <time>2016-03-16T14:44:48Z</time>
      </trkpt>
      <trkpt lat="47.80631" lon="-3.34647">
        <ele>29.94</ele>
        <time>2016-03-16T14:45:03Z</time>
      </trkpt>
      <trkpt lat="47.80642" lon="-3.3465">
        <ele>28.98</ele>
        <time>2016-03-16T14:45:20Z</time>
      </trkpt>
      <trkpt lat="47.80656" lon="-3.34664">
        <ele>28.98</ele>
        <time>2016-03-16T14:45:38Z</time>
      </trkpt>
      <trkpt lat="47.80673" lon="-3.34678">
        <ele>28.5</ele>
        <time>2016-03-16T14:45:56Z</time>
      </trkpt>
      <trkpt lat="47.80684" lon="-3.34686">
        <ele>28.02</ele>
        <time>2016-03-16T14:46:13Z</time>
      </trkpt>
      <trkpt lat="47.80699" lon="-3.34693">
        <ele>28.02</ele>
        <time>2016-03-16T14:46:33Z</time>
      </trkpt>
      <trkpt lat="47.8072" lon="-3.34687">
        <ele>29.46</ele>
        <time>2016-03-16T14:46:49Z</time>
      </trkpt>
      <trkpt lat="47.80732" lon="-3.3469">
        <ele>30.9</ele>
        <time>2016-03-16T14:47:04Z</time>
      </trkpt>
      <trkpt lat="47.80744" lon="-3.34697">
        <ele>30.42</ele>
        <time>2016-03-16T14:47:18Z</time>
      </trkpt>
      <trkpt lat="47.80757" lon="-3.34701">
        <ele>30.9</ele>
        <time>2016-03-16T14:47:35Z</time>
      </trkpt>
      <trkpt lat="47.80762" lon="-3.34715">
        <ele>30.9</ele>
        <time>2016-03-16T14:47:52Z</time>
      </trkpt>
      <trkpt lat="47.8078" lon="-3.34733">
        <ele>29.46</ele>
        <time>2016-03-16T14:48:13Z</time>
      </trkpt>
      <trkpt lat="47.80798" lon="-3.34752">
        <ele>29.94</ele>
        <time>2016-03-16T14:48:32Z</time>
      </trkpt>
      <trkpt lat="47.80817" lon="-3.34769">
        <ele>29.94</ele>
        <time>2016-03-16T14:48:51Z</time>
      </trkpt>
      <trkpt lat="47.80835" lon="-3.34789">
        <ele>30.42</ele>
        <time>2016-03-16T14:49:11Z</time>
      </trkpt>
      <trkpt lat="47.8085" lon="-3.34796">
        <ele>30.9</ele>
        <time>2016-03-16T14:49:28Z</time>
      </trkpt>
      <trkpt lat="47.80856" lon="-3.34794">
        <ele>32.34</ele>
        <time>2016-03-16T14:49:47Z</time>
      </trkpt>
      <trkpt lat="47.80863" lon="-3.34809">
        <ele>32.34</ele>
        <time>2016-03-16T14:50:05Z</time>
      </trkpt>
      <trkpt lat="47.80884" lon="-3.34835">
        <ele>32.34</ele>
        <time>2016-03-16T14:50:26Z</time>
      </trkpt>
      <trkpt lat="47.80901" lon="-3.34848">
        <ele>32.34</ele>
        <time>2016-03-16T14:50:46Z</time>
      </trkpt>
      <trkpt lat="47.80913" lon="-3.34858">
        <ele>31.86</ele>
        <time>2016-03-16T14:51:05Z</time>
      </trkpt>
      <trkpt lat="47.8094" lon="-3.34871">
        <ele>31.86</ele>
        <time>2016-03-16T14:51:26Z</time>
      </trkpt>
      <trkpt lat="47.80963" lon="-3.34878">
        <ele>31.38</ele>
        <time>2016-03-16T14:51:46Z</time>
      </trkpt>
      <trkpt lat="47.80974" lon="-3.34889">
        <ele>32.34</ele>
        <time>2016-03-16T14:52:03Z</time>
      </trkpt>
      <trkpt lat="47.80986" lon="-3.34901">
        <ele>32.34</ele>
        <time>2016-03-16T14:52:22Z</time>
      </trkpt>
      <trkpt lat="47.80989" lon="-3.34926">
        <ele>32.34</ele>
        <time>2016-03-16T14:52:40Z</time>
      </trkpt>
      <trkpt lat="47.80988" lon="-3.34944">
        <ele>32.34</ele>
        <time>2016-03-16T14:52:58Z</time>
      </trkpt>
      <trkpt lat="47.80991" lon="-3.34968">
        <ele>33.3</ele>
        <time>2016-03-16T14:53:16Z</time>
      </trkpt>
      <trkpt lat="47.80988" lon="-3.34995">
        <ele>32.34</ele>
        <time>2016-03-16T14:53:33Z</time>
      </trkpt>
      <trkpt lat="47.80988" lon="-3.35025">
        <ele>32.34</ele>
        <time>2016-03-16T14:53:55Z</time>
      </trkpt>
      <trkpt lat="47.81" lon="-3.35055">
        <ele>31.38</ele>
        <time>2016-03-16T14:54:12Z</time>
      </trkpt>
      <trkpt lat="47.81008" lon="-3.35078">
        <ele>32.34</ele>
        <time>2016-03-16T14:54:31Z</time>
      </trkpt>
      <trkpt lat="47.8101" lon="-3.35072">
        <ele>32.34</ele>
        <time>2016-03-16T14:54:57Z</time>
      </trkpt>
      <trkpt lat="47.81017" lon="-3.35069">
        <ele>31.86</ele>
        <time>2016-03-16T14:55:23Z</time>
      </trkpt>
      <trkpt lat="47.81012" lon="-3.3508">
        <ele>32.34</ele>
        <time>2016-03-16T14:55:51Z</time>
      </trkpt>
      <trkpt lat="47.81022" lon="-3.35093">
        <ele>32.34</ele>
        <time>2016-03-16T14:56:08Z</time>
      </trkpt>
      <trkpt lat="47.81024" lon="-3.35097">
        <ele>32.34</ele>
        <time>2016-03-16T14:56:15Z</time>
      </trkpt>
      <trkpt lat="47.81027" lon="-3.35118">
        <ele>33.3</ele>
        <time>2016-03-16T14:56:34Z</time>
      </trkpt>
      <trkpt lat="47.8103" lon="-3.3513">
        <ele>33.3</ele>
        <time>2016-03-16T14:56:43Z</time>
      </trkpt>
      <trkpt lat="47.81038" lon="-3.3515">
        <ele>33.3</ele>
        <time>2016-03-16T14:56:59Z</time>
      </trkpt>
      <trkpt lat="47.81045" lon="-3.35173">
        <ele>35.71</ele>
        <time>2016-03-16T14:57:17Z</time>
      </trkpt>
      <trkpt lat="47.81045" lon="-3.35175">
        <ele>13.12</ele>
        <time>2016-03-16T14:57:20Z</time>
      </trkpt>
      <trkpt lat="47.81046" lon="-3.35176">
        <ele>55.41</ele>
        <time>2016-03-16T14:57:21Z</time>
      </trkpt>
      <trkpt lat="47.81046" lon="-3.35177">
        <ele>36.67</ele>
        <time>2016-03-16T14:57:22Z</time>
      </trkpt>
      <trkpt lat="47.81047" lon="-3.35179">
        <ele>35.23</ele>
        <time>2016-03-16T14:57:24Z</time>
      </trkpt>
      <trkpt lat="47.81049" lon="-3.352">
        <ele>36.19</ele>
        <time>2016-03-16T14:57:41Z</time>
      </trkpt>
      <trkpt lat="47.81059" lon="-3.35207">
        <ele>35.23</ele>
        <time>2016-03-16T14:57:50Z</time>
      </trkpt>
      <trkpt lat="47.81077" lon="-3.35208">
        <ele>34.74</ele>
        <time>2016-03-16T14:58:05Z</time>
      </trkpt>
      <trkpt lat="47.81089" lon="-3.35206">
        <ele>34.74</ele>
        <time>2016-03-16T14:58:21Z</time>
      </trkpt>
      <trkpt lat="47.81091" lon="-3.35214">
        <ele>34.26</ele>
        <time>2016-03-16T14:58:35Z</time>
      </trkpt>
      <trkpt lat="47.81097" lon="-3.35224">
        <ele>34.26</ele>
        <time>2016-03-16T14:58:49Z</time>
      </trkpt>
      <trkpt lat="47.81104" lon="-3.35241">
        <ele>34.26</ele>
        <time>2016-03-16T14:59:06Z</time>
      </trkpt>
      <trkpt lat="47.81106" lon="-3.35244">
        <ele>34.26</ele>
        <time>2016-03-16T14:59:09Z</time>
      </trkpt>
      <trkpt lat="47.8111" lon="-3.35265">
        <ele>34.26</ele>
        <time>2016-03-16T14:59:25Z</time>
      </trkpt>
      <trkpt lat="47.81114" lon="-3.3528">
        <ele>35.23</ele>
        <time>2016-03-16T14:59:35Z</time>
      </trkpt>
      <trkpt lat="47.81127" lon="-3.35286">
        <ele>35.23</ele>
        <time>2016-03-16T14:59:47Z</time>
      </trkpt>
      <trkpt lat="47.81149" lon="-3.35285">
        <ele>34.74</ele>
        <time>2016-03-16T15:00:06Z</time>
      </trkpt>
      <trkpt lat="47.81154" lon="-3.3528">
        <ele>35.23</ele>
        <time>2016-03-16T15:00:11Z</time>
      </trkpt>
      <trkpt lat="47.8116" lon="-3.35275">
        <ele>34.74</ele>
        <time>2016-03-16T15:00:18Z</time>
      </trkpt>
      <trkpt lat="47.81165" lon="-3.3527">
        <ele>35.23</ele>
        <time>2016-03-16T15:00:24Z</time>
      </trkpt>
      <trkpt lat="47.81176" lon="-3.35253">
        <ele>34.74</ele>
        <time>2016-03-16T15:00:40Z</time>
      </trkpt>
      <trkpt lat="47.81185" lon="-3.35238">
        <ele>34.74</ele>
        <time>2016-03-16T15:00:55Z</time>
      </trkpt>
      <trkpt lat="47.81187" lon="-3.35233">
        <ele>34.74</ele>
        <time>2016-03-16T15:00:59Z</time>
      </trkpt>
      <trkpt lat="47.81197" lon="-3.35219">
        <ele>34.26</ele>
        <time>2016-03-16T15:01:16Z</time>
      </trkpt>
      <trkpt lat="47.81198" lon="-3.35197">
        <ele>35.71</ele>
        <time>2016-03-16T15:01:34Z</time>
      </trkpt>
      <trkpt lat="47.81202" lon="-3.35192">
        <ele>34.26</ele>
        <time>2016-03-16T15:01:47Z</time>
      </trkpt>
      <trkpt lat="47.81212" lon="-3.35178">
        <ele>33.3</ele>
        <time>2016-03-16T15:02:03Z</time>
      </trkpt>
      <trkpt lat="47.81226" lon="-3.3516">
        <ele>33.3</ele>
        <time>2016-03-16T15:02:21Z</time>
      </trkpt>
      <trkpt lat="47.81239" lon="-3.35143">
        <ele>32.82</ele>
        <time>2016-03-16T15:02:39Z</time>
      </trkpt>
      <trkpt lat="47.8125" lon="-3.35131">
        <ele>34.26</ele>
        <time>2016-03-16T15:02:54Z</time>
      </trkpt>
      <trkpt lat="47.81258" lon="-3.35128">
        <ele>35.23</ele>
        <time>2016-03-16T15:03:12Z</time>
      </trkpt>
      <trkpt lat="47.81274" lon="-3.35122">
        <ele>34.26</ele>
        <time>2016-03-16T15:03:30Z</time>
      </trkpt>
      <trkpt lat="47.81289" lon="-3.35119">
        <ele>33.78</ele>
        <time>2016-03-16T15:03:47Z</time>
      </trkpt>
      <trkpt lat="47.81302" lon="-3.35109">
        <ele>33.78</ele>
        <time>2016-03-16T15:04:02Z</time>
      </trkpt>
      <trkpt lat="47.81316" lon="-3.35103">
        <ele>33.3</ele>
        <time>2016-03-16T15:04:20Z</time>
      </trkpt>
      <trkpt lat="47.81329" lon="-3.35091">
        <ele>33.78</ele>
        <time>2016-03-16T15:04:35Z</time>
      </trkpt>
      <trkpt lat="47.8134" lon="-3.35078">
        <ele>33.3</ele>
        <time>2016-03-16T15:04:50Z</time>
      </trkpt>
      <trkpt lat="47.81346" lon="-3.35059">
        <ele>33.3</ele>
        <time>2016-03-16T15:05:06Z</time>
      </trkpt>
      <trkpt lat="47.81353" lon="-3.35037">
        <ele>33.3</ele>
        <time>2016-03-16T15:05:26Z</time>
      </trkpt>
      <trkpt lat="47.81361" lon="-3.35026">
        <ele>35.23</ele>
        <time>2016-03-16T15:05:42Z</time>
      </trkpt>
      <trkpt lat="47.81363" lon="-3.35026">
        <ele>35.23</ele>
        <time>2016-03-16T15:05:48Z</time>
      </trkpt>
      <trkpt lat="47.81372" lon="-3.35035">
        <ele>34.74</ele>
        <time>2016-03-16T15:06:05Z</time>
      </trkpt>
      <trkpt lat="47.8139" lon="-3.35043">
        <ele>34.26</ele>
        <time>2016-03-16T15:06:24Z</time>
      </trkpt>
      <trkpt lat="47.81405" lon="-3.35048">
        <ele>34.26</ele>
        <time>2016-03-16T15:06:42Z</time>
      </trkpt>
      <trkpt lat="47.81418" lon="-3.35057">
        <ele>34.74</ele>
        <time>2016-03-16T15:06:58Z</time>
      </trkpt>
      <trkpt lat="47.8143" lon="-3.35062">
        <ele>35.23</ele>
        <time>2016-03-16T15:07:12Z</time>
      </trkpt>
      <trkpt lat="47.81444" lon="-3.3506">
        <ele>34.74</ele>
        <time>2016-03-16T15:07:26Z</time>
      </trkpt>
      <trkpt lat="47.81449" lon="-3.35054">
        <ele>34.26</ele>
        <time>2016-03-16T15:07:33Z</time>
      </trkpt>
      <trkpt lat="47.81463" lon="-3.35041">
        <ele>34.26</ele>
        <time>2016-03-16T15:07:49Z</time>
      </trkpt>
      <trkpt lat="47.81465" lon="-3.35042">
        <ele>34.74</ele>
        <time>2016-03-16T15:07:54Z</time>
      </trkpt>
      <trkpt lat="47.81473" lon="-3.35046">
        <ele>35.23</ele>
        <time>2016-03-16T15:08:08Z</time>
      </trkpt>
      <trkpt lat="47.81477" lon="-3.35045">
        <ele>34.74</ele>
        <time>2016-03-16T15:08:12Z</time>
      </trkpt>
      <trkpt lat="47.81494" lon="-3.35039">
        <ele>34.74</ele>
        <time>2016-03-16T15:08:30Z</time>
      </trkpt>
      <trkpt lat="47.81504" lon="-3.35033">
        <ele>34.26</ele>
        <time>2016-03-16T15:08:46Z</time>
      </trkpt>
      <trkpt lat="47.81515" lon="-3.35016">
        <ele>35.71</ele>
        <time>2016-03-16T15:09:04Z</time>
      </trkpt>
      <trkpt lat="47.81517" lon="-3.35002">
        <ele>38.59</ele>
        <time>2016-03-16T15:09:12Z</time>
      </trkpt>
      <trkpt lat="47.8151" lon="-3.34982">
        <ele>37.15</ele>
        <time>2016-03-16T15:09:24Z</time>
      </trkpt>
      <trkpt lat="47.815" lon="-3.3497">
        <ele>36.67</ele>
        <time>2016-03-16T15:09:40Z</time>
      </trkpt>
      <trkpt lat="47.81496" lon="-3.34971">
        <ele>36.67</ele>
        <time>2016-03-16T15:09:50Z</time>
      </trkpt>
      <trkpt lat="47.81496" lon="-3.34965">
        <ele>37.15</ele>
        <time>2016-03-16T15:09:54Z</time>
      </trkpt>
      <trkpt lat="47.815" lon="-3.34953">
        <ele>38.11</ele>
        <time>2016-03-16T15:10:06Z</time>
      </trkpt>
      <trkpt lat="47.81507" lon="-3.34944">
        <ele>37.63</ele>
        <time>2016-03-16T15:10:22Z</time>
      </trkpt>
      <trkpt lat="47.81517" lon="-3.34933">
        <ele>38.59</ele>
        <time>2016-03-16T15:10:40Z</time>
      </trkpt>
      <trkpt lat="47.81528" lon="-3.34912">
        <ele>38.59</ele>
        <time>2016-03-16T15:10:59Z</time>
      </trkpt>
      <trkpt lat="47.8154" lon="-3.34891">
        <ele>38.11</ele>
        <time>2016-03-16T15:11:18Z</time>
      </trkpt>
      <trkpt lat="47.8155" lon="-3.34875">
        <ele>39.07</ele>
        <time>2016-03-16T15:11:39Z</time>
      </trkpt>
      <trkpt lat="47.81561" lon="-3.34866">
        <ele>39.55</ele>
        <time>2016-03-16T15:11:57Z</time>
      </trkpt>
      <trkpt lat="47.81571" lon="-3.34863">
        <ele>40.03</ele>
        <time>2016-03-16T15:12:14Z</time>
      </trkpt>
      <trkpt lat="47.81586" lon="-3.34858">
        <ele>39.55</ele>
        <time>2016-03-16T15:12:31Z</time>
      </trkpt>
      <trkpt lat="47.816" lon="-3.34854">
        <ele>40.03</ele>
        <time>2016-03-16T15:12:47Z</time>
      </trkpt>
      <trkpt lat="47.81618" lon="-3.34847">
        <ele>40.03</ele>
        <time>2016-03-16T15:13:05Z</time>
      </trkpt>
      <trkpt lat="47.8163" lon="-3.34828">
        <ele>40.99</ele>
        <time>2016-03-16T15:13:21Z</time>
      </trkpt>
      <trkpt lat="47.81636" lon="-3.34817">
        <ele>42.44</ele>
        <time>2016-03-16T15:13:37Z</time>
      </trkpt>
      <trkpt lat="47.81648" lon="-3.34813">
        <ele>41.47</ele>
        <time>2016-03-16T15:13:54Z</time>
      </trkpt>
      <trkpt lat="47.8166" lon="-3.34813">
        <ele>41.47</ele>
        <time>2016-03-16T15:14:10Z</time>
      </trkpt>
      <trkpt lat="47.81664" lon="-3.34814">
        <ele>41.47</ele>
        <time>2016-03-16T15:14:14Z</time>
      </trkpt>
      <trkpt lat="47.81675" lon="-3.34817">
        <ele>41.95</ele>
        <time>2016-03-16T15:14:29Z</time>
      </trkpt>
      <trkpt lat="47.81689" lon="-3.3482">
        <ele>42.44</ele>
        <time>2016-03-16T15:14:45Z</time>
      </trkpt>
      <trkpt lat="47.81702" lon="-3.34833">
        <ele>42.44</ele>
        <time>2016-03-16T15:15:00Z</time>
      </trkpt>
      <trkpt lat="47.81721" lon="-3.34836">
        <ele>42.44</ele>
        <time>2016-03-16T15:15:18Z</time>
      </trkpt>
      <trkpt lat="47.81735" lon="-3.34847">
        <ele>41.95</ele>
        <time>2016-03-16T15:15:34Z</time>
      </trkpt>
      <trkpt lat="47.81745" lon="-3.34857">
        <ele>42.92</ele>
        <time>2016-03-16T15:15:51Z</time>
      </trkpt>
      <trkpt lat="47.81758" lon="-3.34861">
        <ele>43.4</ele>
        <time>2016-03-16T15:16:07Z</time>
      </trkpt>
      <trkpt lat="47.8178" lon="-3.34856">
        <ele>43.88</ele>
        <time>2016-03-16T15:16:26Z</time>
      </trkpt>
      <trkpt lat="47.81786" lon="-3.34861">
        <ele>44.84</ele>
        <time>2016-03-16T15:16:40Z</time>
      </trkpt>
      <trkpt lat="47.81789" lon="-3.34871">
        <ele>44.84</ele>
        <time>2016-03-16T15:16:55Z</time>
      </trkpt>
      <trkpt lat="47.81798" lon="-3.34882">
        <ele>45.32</ele>
        <time>2016-03-16T15:17:10Z</time>
      </trkpt>
      <trkpt lat="47.81821" lon="-3.3489">
        <ele>44.84</ele>
        <time>2016-03-16T15:17:29Z</time>
      </trkpt>
      <trkpt lat="47.81843" lon="-3.34886">
        <ele>45.32</ele>
        <time>2016-03-16T15:17:48Z</time>
      </trkpt>
      <trkpt lat="47.81859" lon="-3.34877">
        <ele>45.32</ele>
        <time>2016-03-16T15:18:06Z</time>
      </trkpt>
      <trkpt lat="47.81877" lon="-3.34881">
        <ele>45.8</ele>
        <time>2016-03-16T15:18:28Z</time>
      </trkpt>
      <trkpt lat="47.81897" lon="-3.34876">
        <ele>46.76</ele>
        <time>2016-03-16T15:18:50Z</time>
      </trkpt>
      <trkpt lat="47.8192" lon="-3.34869">
        <ele>47.24</ele>
        <time>2016-03-16T15:19:13Z</time>
      </trkpt>
      <trkpt lat="47.81936" lon="-3.34861">
        <ele>47.24</ele>
        <time>2016-03-16T15:19:32Z</time>
      </trkpt>
      <trkpt lat="47.81949" lon="-3.34853">
        <ele>47.72</ele>
        <time>2016-03-16T15:19:51Z</time>
      </trkpt>
      <trkpt lat="47.81961" lon="-3.34834">
        <ele>47.72</ele>
        <time>2016-03-16T15:20:08Z</time>
      </trkpt>
      <trkpt lat="47.81972" lon="-3.34812">
        <ele>47.24</ele>
        <time>2016-03-16T15:20:25Z</time>
      </trkpt>
      <trkpt lat="47.81977" lon="-3.34781">
        <ele>49.16</ele>
        <time>2016-03-16T15:20:44Z</time>
      </trkpt>
      <trkpt lat="47.81976" lon="-3.34753">
        <ele>48.2</ele>
        <time>2016-03-16T15:21:04Z</time>
      </trkpt>
      <trkpt lat="47.81976" lon="-3.34726">
        <ele>47.72</ele>
        <time>2016-03-16T15:21:22Z</time>
      </trkpt>
      <trkpt lat="47.81975" lon="-3.34699">
        <ele>47.72</ele>
        <time>2016-03-16T15:21:40Z</time>
      </trkpt>
      <trkpt lat="47.8197" lon="-3.34677">
        <ele>49.16</ele>
        <time>2016-03-16T15:21:56Z</time>
      </trkpt>
      <trkpt lat="47.81951" lon="-3.34656">
        <ele>50.61</ele>
        <time>2016-03-16T15:22:15Z</time>
      </trkpt>
      <trkpt lat="47.81936" lon="-3.34645">
        <ele>49.65</ele>
        <time>2016-03-16T15:22:33Z</time>
      </trkpt>
      <trkpt lat="47.81929" lon="-3.34637">
        <ele>50.13</ele>
        <time>2016-03-16T15:22:51Z</time>
      </trkpt>
      <trkpt lat="47.81926" lon="-3.34635">
        <ele>50.61</ele>
        <time>2016-03-16T15:23:13Z</time>
      </trkpt>
      <trkpt lat="47.81928" lon="-3.34633">
        <ele>50.13</ele>
        <time>2016-03-16T15:23:28Z</time>
      </trkpt>
      <trkpt lat="47.81928" lon="-3.34615">
        <ele>49.65</ele>
        <time>2016-03-16T15:23:44Z</time>
      </trkpt>
      <trkpt lat="47.81928" lon="-3.34604">
        <ele>50.13</ele>
        <time>2016-03-16T15:23:57Z</time>
      </trkpt>
      <trkpt lat="47.81927" lon="-3.3458">
        <ele>49.16</ele>
        <time>2016-03-16T15:24:14Z</time>
      </trkpt>
      <trkpt lat="47.81923" lon="-3.34552">
        <ele>49.65</ele>
        <time>2016-03-16T15:24:31Z</time>
      </trkpt>
      <trkpt lat="47.81923" lon="-3.34531">
        <ele>50.13</ele>
        <time>2016-03-16T15:24:44Z</time>
      </trkpt>
      <trkpt lat="47.81922" lon="-3.34527">
        <ele>50.13</ele>
        <time>2016-03-16T15:24:47Z</time>
      </trkpt>
      <trkpt lat="47.81924" lon="-3.3451">
        <ele>50.13</ele>
        <time>2016-03-16T15:25:03Z</time>
      </trkpt>
      <trkpt lat="47.81924" lon="-3.34499">
        <ele>49.65</ele>
        <time>2016-03-16T15:25:12Z</time>
      </trkpt>
      <trkpt lat="47.81919" lon="-3.34482">
        <ele>51.57</ele>
        <time>2016-03-16T15:25:24Z</time>
      </trkpt>
      <trkpt lat="47.81911" lon="-3.34479">
        <ele>50.61</ele>
        <time>2016-03-16T15:25:33Z</time>
      </trkpt>
      <trkpt lat="47.81902" lon="-3.34484">
        <ele>50.61</ele>
        <time>2016-03-16T15:25:46Z</time>
      </trkpt>
      <trkpt lat="47.81895" lon="-3.34487">
        <ele>50.61</ele>
        <time>2016-03-16T15:25:56Z</time>
      </trkpt>
      <trkpt lat="47.81877" lon="-3.34495">
        <ele>50.61</ele>
        <time>2016-03-16T15:26:14Z</time>
      </trkpt>
      <trkpt lat="47.81859" lon="-3.34502">
        <ele>50.61</ele>
        <time>2016-03-16T15:26:32Z</time>
      </trkpt>
      <trkpt lat="47.81857" lon="-3.34502">
        <ele>51.57</ele>
        <time>2016-03-16T15:26:34Z</time>
      </trkpt>
      <trkpt lat="47.81843" lon="-3.34501">
        <ele>52.05</ele>
        <time>2016-03-16T15:26:53Z</time>
      </trkpt>
      <trkpt lat="47.81828" lon="-3.34496">
        <ele>53.01</ele>
        <time>2016-03-16T15:27:11Z</time>
      </trkpt>
      <trkpt lat="47.81825" lon="-3.34494">
        <ele>53.49</ele>
        <time>2016-03-16T15:27:15Z</time>
      </trkpt>
      <trkpt lat="47.8181" lon="-3.34492">
        <ele>53.49</ele>
        <time>2016-03-16T15:27:31Z</time>
      </trkpt>
      <trkpt lat="47.81791" lon="-3.34491">
        <ele>53.97</ele>
        <time>2016-03-16T15:27:50Z</time>
      </trkpt>
      <trkpt lat="47.81781" lon="-3.3449">
        <ele>55.89</ele>
        <time>2016-03-16T15:28:03Z</time>
      </trkpt>
      <trkpt lat="47.81767" lon="-3.34491">
        <ele>56.86</ele>
        <time>2016-03-16T15:28:20Z</time>
      </trkpt>
      <trkpt lat="47.81756" lon="-3.3449">
        <ele>56.86</ele>
        <time>2016-03-16T15:28:29Z</time>
      </trkpt>
      <trkpt lat="47.81741" lon="-3.34489">
        <ele>57.34</ele>
        <time>2016-03-16T15:28:46Z</time>
      </trkpt>
      <trkpt lat="47.81736" lon="-3.3449">
        <ele>57.82</ele>
        <time>2016-03-16T15:28:52Z</time>
      </trkpt>
      <trkpt lat="47.81732" lon="-3.34491">
        <ele>57.82</ele>
        <time>2016-03-16T15:28:56Z</time>
      </trkpt>
      <trkpt lat="47.81714" lon="-3.34491">
        <ele>57.34</ele>
        <time>2016-03-16T15:29:14Z</time>
      </trkpt>
      <trkpt lat="47.81699" lon="-3.34484">
        <ele>56.86</ele>
        <time>2016-03-16T15:29:32Z</time>
      </trkpt>
      <trkpt lat="47.81685" lon="-3.34476">
        <ele>54.93</ele>
        <time>2016-03-16T15:29:48Z</time>
      </trkpt>
      <trkpt lat="47.81671" lon="-3.34469">
        <ele>55.89</ele>
        <time>2016-03-16T15:30:05Z</time>
      </trkpt>
      <trkpt lat="47.81665" lon="-3.34467">
        <ele>55.41</ele>
        <time>2016-03-16T15:30:20Z</time>
      </trkpt>
      <trkpt lat="47.81652" lon="-3.34461">
        <ele>54.45</ele>
        <time>2016-03-16T15:30:36Z</time>
      </trkpt>
      <trkpt lat="47.81637" lon="-3.34453">
        <ele>54.45</ele>
        <time>2016-03-16T15:30:51Z</time>
      </trkpt>
      <trkpt lat="47.81623" lon="-3.34449">
        <ele>53.49</ele>
        <time>2016-03-16T15:31:06Z</time>
      </trkpt>
      <trkpt lat="47.81609" lon="-3.34442">
        <ele>53.01</ele>
        <time>2016-03-16T15:31:23Z</time>
      </trkpt>
      <trkpt lat="47.81591" lon="-3.34435">
        <ele>52.05</ele>
        <time>2016-03-16T15:31:39Z</time>
      </trkpt>
      <trkpt lat="47.81588" lon="-3.34434">
        <ele>51.57</ele>
        <time>2016-03-16T15:31:42Z</time>
      </trkpt>
      <trkpt lat="47.81569" lon="-3.34424">
        <ele>51.09</ele>
        <time>2016-03-16T15:32:01Z</time>
      </trkpt>
      <trkpt lat="47.81561" lon="-3.34416">
        <ele>51.09</ele>
        <time>2016-03-16T15:32:11Z</time>
      </trkpt>
      <trkpt lat="47.8154" lon="-3.34405">
        <ele>50.61</ele>
        <time>2016-03-16T15:32:30Z</time>
      </trkpt>
      <trkpt lat="47.81521" lon="-3.34397">
        <ele>50.61</ele>
        <time>2016-03-16T15:32:47Z</time>
      </trkpt>
      <trkpt lat="47.81504" lon="-3.3439">
        <ele>51.09</ele>
        <time>2016-03-16T15:33:02Z</time>
      </trkpt>
      <trkpt lat="47.81487" lon="-3.34383">
        <ele>50.13</ele>
        <time>2016-03-16T15:33:19Z</time>
      </trkpt>
      <trkpt lat="47.8148" lon="-3.3438">
        <ele>50.13</ele>
        <time>2016-03-16T15:33:26Z</time>
      </trkpt>
      <trkpt lat="47.81464" lon="-3.34373">
        <ele>50.13</ele>
        <time>2016-03-16T15:33:43Z</time>
      </trkpt>
      <trkpt lat="47.81452" lon="-3.34373">
        <ele>50.13</ele>
        <time>2016-03-16T15:33:55Z</time>
      </trkpt>
      <trkpt lat="47.81438" lon="-3.34384">
        <ele>50.61</ele>
        <time>2016-03-16T15:34:10Z</time>
      </trkpt>
      <trkpt lat="47.81434" lon="-3.34388">
        <ele>50.61</ele>
        <time>2016-03-16T15:34:24Z</time>
      </trkpt>
      <trkpt lat="47.81432" lon="-3.34388">
        <ele>50.61</ele>
        <time>2016-03-16T15:34:27Z</time>
      </trkpt>
      <trkpt lat="47.81429" lon="-3.34387">
        <ele>50.61</ele>
        <time>2016-03-16T15:34:32Z</time>
      </trkpt>
      <trkpt lat="47.8143" lon="-3.34375">
        <ele>49.65</ele>
        <time>2016-03-16T15:34:40Z</time>
      </trkpt>
      <trkpt lat="47.8143" lon="-3.34373">
        <ele>49.65</ele>
        <time>2016-03-16T15:34:41Z</time>
      </trkpt>
      <trkpt lat="47.81428" lon="-3.3437">
        <ele>49.65</ele>
        <time>2016-03-16T15:34:45Z</time>
      </trkpt>
      <trkpt lat="47.81425" lon="-3.34365">
        <ele>49.16</ele>
        <time>2016-03-16T15:34:49Z</time>
      </trkpt>
      <trkpt lat="47.81404" lon="-3.34354">
        <ele>50.61</ele>
        <time>2016-03-16T15:35:07Z</time>
      </trkpt>
      <trkpt lat="47.81385" lon="-3.34343">
        <ele>50.13</ele>
        <time>2016-03-16T15:35:24Z</time>
      </trkpt>
      <trkpt lat="47.81384" lon="-3.34342">
        <ele>50.13</ele>
        <time>2016-03-16T15:35:26Z</time>
      </trkpt>
      <trkpt lat="47.81379" lon="-3.34341">
        <ele>50.13</ele>
        <time>2016-03-16T15:35:31Z</time>
      </trkpt>
      <trkpt lat="47.81362" lon="-3.34334">
        <ele>50.61</ele>
        <time>2016-03-16T15:35:48Z</time>
      </trkpt>
      <trkpt lat="47.81344" lon="-3.34327">
        <ele>51.09</ele>
        <time>2016-03-16T15:36:06Z</time>
      </trkpt>
      <trkpt lat="47.81334" lon="-3.34323">
        <ele>52.05</ele>
        <time>2016-03-16T15:36:17Z</time>
      </trkpt>
      <trkpt lat="47.81321" lon="-3.34313">
        <ele>51.57</ele>
        <time>2016-03-16T15:36:32Z</time>
      </trkpt>
      <trkpt lat="47.81306" lon="-3.34303">
        <ele>51.57</ele>
        <time>2016-03-16T15:36:46Z</time>
      </trkpt>
      <trkpt lat="47.81292" lon="-3.34288">
        <ele>52.53</ele>
        <time>2016-03-16T15:37:03Z</time>
      </trkpt>
      <trkpt lat="47.8128" lon="-3.34275">
        <ele>53.01</ele>
        <time>2016-03-16T15:37:19Z</time>
      </trkpt>
      <trkpt lat="47.81271" lon="-3.34263">
        <ele>53.49</ele>
        <time>2016-03-16T15:37:32Z</time>
      </trkpt>
      <trkpt lat="47.81269" lon="-3.34258">
        <ele>53.01</ele>
        <time>2016-03-16T15:37:36Z</time>
      </trkpt>
      <trkpt lat="47.81257" lon="-3.34242">
        <ele>53.49</ele>
        <time>2016-03-16T15:37:52Z</time>
      </trkpt>
      <trkpt lat="47.81255" lon="-3.34237">
        <ele>54.45</ele>
        <time>2016-03-16T15:37:56Z</time>
      </trkpt>
      <trkpt lat="47.81252" lon="-3.34233">
        <ele>53.49</ele>
        <time>2016-03-16T15:38:01Z</time>
      </trkpt>
      <trkpt lat="47.81244" lon="-3.34228">
        <ele>54.45</ele>
        <time>2016-03-16T15:38:07Z</time>
      </trkpt>
      <trkpt lat="47.81226" lon="-3.34211">
        <ele>55.89</ele>
        <time>2016-03-16T15:38:27Z</time>
      </trkpt>
      <trkpt lat="47.81213" lon="-3.34195">
        <ele>56.37</ele>
        <time>2016-03-16T15:38:44Z</time>
      </trkpt>
      <trkpt lat="47.81198" lon="-3.34179">
        <ele>57.34</ele>
        <time>2016-03-16T15:39:01Z</time>
      </trkpt>
      <trkpt lat="47.81182" lon="-3.34171">
        <ele>57.82</ele>
        <time>2016-03-16T15:39:16Z</time>
      </trkpt>
      <trkpt lat="47.81172" lon="-3.34161">
        <ele>58.3</ele>
        <time>2016-03-16T15:39:31Z</time>
      </trkpt>
      <trkpt lat="47.81165" lon="-3.34156">
        <ele>58.78</ele>
        <time>2016-03-16T15:39:38Z</time>
      </trkpt>
      <trkpt lat="47.81154" lon="-3.3414">
        <ele>59.26</ele>
        <time>2016-03-16T15:39:56Z</time>
      </trkpt>
      <trkpt lat="47.81154" lon="-3.34139">
        <ele>59.26</ele>
        <time>2016-03-16T15:39:57Z</time>
      </trkpt>
      <trkpt lat="47.81153" lon="-3.34117">
        <ele>59.74</ele>
        <time>2016-03-16T15:40:11Z</time>
      </trkpt>
      <trkpt lat="47.81143" lon="-3.34096">
        <ele>59.26</ele>
        <time>2016-03-16T15:40:27Z</time>
      </trkpt>
      <trkpt lat="47.81138" lon="-3.34089">
        <ele>58.78</ele>
        <time>2016-03-16T15:40:34Z</time>
      </trkpt>
      <trkpt lat="47.81134" lon="-3.34066">
        <ele>58.78</ele>
        <time>2016-03-16T15:40:52Z</time>
      </trkpt>
      <trkpt lat="47.81134" lon="-3.34066">
        <ele>52.53</ele>
        <time>2016-03-16T15:41:05Z</time>
      </trkpt>
      <trkpt lat="47.81134" lon="-3.34066">
        <ele>57.82</ele>
        <time>2016-03-16T15:41:06Z</time>
      </trkpt>
      <trkpt lat="47.81135" lon="-3.34069">
        <ele>48.2</ele>
        <time>2016-03-16T15:41:18Z</time>
      </trkpt>
      <trkpt lat="47.81135" lon="-3.3407">
        <ele>61.18</ele>
        <time>2016-03-16T15:41:19Z</time>
      </trkpt>
      <trkpt lat="47.81134" lon="-3.34069">
        <ele>76.08</ele>
        <time>2016-03-16T15:41:20Z</time>
      </trkpt>
      <trkpt lat="47.81134" lon="-3.34069">
        <ele>60.22</ele>
        <time>2016-03-16T15:41:21Z</time>
      </trkpt>
      <trkpt lat="47.81134" lon="-3.34069">
        <ele>59.26</ele>
        <time>2016-03-16T15:41:23Z</time>
      </trkpt>
      <trkpt lat="47.81133" lon="-3.34073">
        <ele>58.78</ele>
        <time>2016-03-16T15:41:43Z</time>
      </trkpt>
      <trkpt lat="47.81131" lon="-3.34075">
        <ele>58.3</ele>
        <time>2016-03-16T15:41:51Z</time>
      </trkpt>
      <trkpt lat="47.81122" lon="-3.34078">
        <ele>58.78</ele>
        <time>2016-03-16T15:42:01Z</time>
      </trkpt>
      <trkpt lat="47.81121" lon="-3.34078">
        <ele>59.74</ele>
        <time>2016-03-16T15:42:10Z</time>
      </trkpt>
      <trkpt lat="47.81115" lon="-3.34087">
        <ele>62.62</ele>
        <time>2016-03-16T15:42:27Z</time>
      </trkpt>
      <trkpt lat="47.81114" lon="-3.34091">
        <ele>62.62</ele>
        <time>2016-03-16T15:42:37Z</time>
      </trkpt>
      <trkpt lat="47.81099" lon="-3.34088">
        <ele>62.62</ele>
        <time>2016-03-16T15:42:49Z</time>
      </trkpt>
    </trkseg>
  </trk>
</gpx>